This is the latest recevied weather packets stored in our database for station/object YN1ZSC-13. If no packets are shown the sender has not sent any weather packets the latest 1 day(s).
| Time | Temp. | Humidity | Pressure | Rain* | Wind** | Luminosity | Snow |
|---|---|---|---|---|---|---|---|
| 1778084766 | 31.11° C | 52% | 1012 hPa | 0 mm | - | - | - |
| 1778083565 | 31.67° C | 54% | 1012 hPa | 0 mm | - | - | - |
| 1778082364 | 30° C | 58% | 1012 hPa | 0 mm | - | - | - |
| 1778081163 | 28.89° C | 58% | 1012 hPa | 0 mm | - | - | - |
| 1778079962 | 29.44° C | 58% | 1012 hPa | 0 mm | - | - | - |
| 1778078160 | 26.67° C | 70% | 1012 hPa | 0 mm | - | - | - |
| 1778076959 | 27.78° C | 70% | 1012 hPa | 0 mm | - | - | - |
| 1778075758 | 26.67° C | 70% | 1012 hPa | 0 mm | - | - | - |
| 1778071554 | 24.44° C | 75% | 1012 hPa | 0 mm | - | - | - |
| 1778067351 | 24.44° C | 73% | 1012 hPa | 0 mm | - | - | - |
| 1778066750 | 24.44° C | 73% | 1011 hPa | 0 mm | - | - | - |
| 1778063147 | 25° C | 71% | 1011 hPa | 0 mm | - | - | - |
| 1778062546 | 25° C | 70% | 1011 hPa | 0 mm | - | - | - |
| 1778061946 | 25° C | 70% | 1011 hPa | 0 mm | - | - | - |
| 1778060144 | 25.56° C | 70% | 1011 hPa | 0 mm | - | - | - |
| 1778057742 | 27.22° C | 70% | 1011 hPa | 0 mm | - | - | - |
| 1778056541 | 24.44° C | 71% | 1011 hPa | 0 mm | - | - | - |
| 1778054138 | 24.44° C | 71% | 1011 hPa | 0 mm | - | - | - |
| 1778053538 | 24.44° C | 72% | 1011 hPa | 0 mm | - | - | - |
| 1778052937 | 25° C | 72% | 1011 hPa | 0 mm | - | - | - |
| 1778051736 | 26.11° C | 72% | 1011 hPa | 0 mm | - | - | - |
| 1778051136 | 26.11° C | 72% | 1011 hPa | 0 mm | - | - | - |
| 1778050535 | 26.67° C | 72% | 1011 hPa | 0 mm | - | - | - |
| 1778049334 | 25° C | 69% | 1011 hPa | 0 mm | - | - | - |
| 1778048733 | 25.56° C | 69% | 1012 hPa | 0 mm | - | - | - |
* Rain latest hour (hover to see other rain measurements)
** Current wind speed in m/s (hover to see current wind gust speed)